Time;durP1;ratioP1;P1;durP2;ratioP2;P2;SDS_P1;SDS_P2;PMS_P1;PMS_P2;Temp;Humidity;BMP_temperature;BMP_pressure;BME280_temperature;BME280_humidity;BME280_pressure;Samples;Min_cycle;Max_cycle;Signal;HPM_P1;HPM_P2
2024/02/17 00:01:56;;;;;;;3.10;2.90;;;11.50;99.90;;;;;;5053888;28;20416;-64
2024/02/17 00:04:21;;;;;;;3.13;2.87;;;11.50;99.90;;;;;;5053620;28;20571;-63
2024/02/17 00:06:47;;;;;;;2.93;2.70;;;11.40;99.90;;;;;;5053316;28;20224;-64
2024/02/17 00:09:12;;;;;;;5.47;2.53;;;11.50;99.90;;;;;;5053506;28;20174;-64
2024/02/17 00:11:38;;;;;;;2.20;2.00;;;11.40;99.90;;;;;;5053371;28;20228;-63
2024/02/17 00:14:04;;;;;;;4.43;4.03;;;11.40;99.90;;;;;;5053286;28;20201;-64
2024/02/17 00:16:30;;;;;;;3.27;2.97;;;11.40;99.90;;;;;;5053276;28;20259;-64
2024/02/17 00:18:56;;;;;;;3.73;2.13;;;11.40;99.90;;;;;;5053026;28;20680;-64
2024/02/17 00:21:21;;;;;;;2.90;2.43;;;11.40;99.90;;;;;;5053175;28;20507;-64
2024/02/17 00:23:47;;;;;;;2.97;2.77;;;11.40;99.90;;;;;;5053217;28;20239;-63
2024/02/17 00:26:17;;;;;;;2.50;2.30;;;11.50;99.90;;;;;;5053118;28;20209;-64
2024/02/17 00:28:43;;;;;;;3.63;3.33;;;11.60;99.90;;;;;;5053230;28;20670;-64
2024/02/17 00:31:08;;;;;;;4.10;2.97;;;11.50;99.90;;;;;;5053195;28;20412;-63
2024/02/17 00:33:34;;;;;;;4.27;3.20;;;11.60;99.90;;;;;;5053091;28;20194;-64
2024/02/17 00:35:59;;;;;;;3.57;3.27;;;11.50;99.90;;;;;;5053030;28;20686;-63
2024/02/17 00:38:25;;;;;;;5.40;3.63;;;11.60;99.90;;;;;;5052611;28;20249;-64
2024/02/17 00:40:51;;;;;;;3.80;3.20;;;11.50;99.90;;;;;;5052916;28;20171;-64
2024/02/17 00:43:16;;;;;;;3.00;2.80;;;11.50;99.90;;;;;;5035231;28;20190;-63
2024/02/17 00:45:43;;;;;;;3.10;2.80;;;11.60;99.90;;;;;;5033023;28;20162;-64
2024/02/17 00:48:09;;;;;;;3.73;2.87;;;11.60;99.90;;;;;;5032699;28;20568;-64
2024/02/17 00:50:35;;;;;;;3.00;2.80;;;11.50;99.90;;;;;;5032806;28;20497;-64
2024/02/17 00:53:00;;;;;;;3.13;2.90;;;11.50;99.90;;;;;;5032717;28;20437;-64
2024/02/17 00:55:26;;;;;;;3.70;3.40;;;11.40;99.90;;;;;;5032664;28;20637;-64
2024/02/17 00:57:52;;;;;;;4.27;2.83;;;11.30;99.90;;;;;;5031791;28;20258;-63
2024/02/17 01:00:17;;;;;;;4.10;3.27;;;11.20;99.90;;;;;;5032636;28;20167;-64
2024/02/17 01:02:43;;;;;;;3.80;3.47;;;11.30;99.90;;;;;;5032624;28;20656;-63
2024/02/17 01:05:09;;;;;;;3.30;3.00;;;11.30;99.90;;;;;;5032745;28;20175;-63
2024/02/17 01:07:34;;;;;;;3.87;3.10;;;11.30;99.90;;;;;;5032152;28;20175;-63
2024/02/17 01:10:00;;;;;;;3.60;3.00;;;11.30;99.90;;;;;;5032447;28;20241;-64
2024/02/17 01:12:25;;;;;;;4.67;3.23;;;11.30;99.90;;;;;;5032347;28;20253;-64
2024/02/17 01:14:51;;;;;;;3.17;2.43;;;11.30;99.90;;;;;;5032464;28;20561;-64
2024/02/17 01:17:17;;;;;;;3.67;2.33;;;11.40;99.90;;;;;;5032277;28;20170;-64
2024/02/17 01:19:43;;;;;;;3.10;2.90;;;11.50;99.90;;;;;;5032186;28;20205;-64
2024/02/17 01:22:08;;;;;;;3.83;3.50;;;11.50;99.90;;;;;;5032179;28;20246;-64
2024/02/17 01:24:35;;;;;;;3.30;3.10;;;11.50;99.90;;;;;;5032082;28;20214;-64
2024/02/17 01:27:00;;;;;;;4.37;3.77;;;11.50;99.90;;;;;;5031893;28;20249;-64
2024/02/17 01:29:26;;;;;;;4.77;3.70;;;11.40;99.90;;;;;;5032261;28;20496;-64
2024/02/17 01:31:53;;;;;;;2.93;2.73;;;11.40;99.90;;;;;;5032192;28;20473;-64
2024/02/17 01:34:20;;;;;;;4.07;3.70;;;11.40;99.90;;;;;;5031863;28;20211;-64
2024/02/17 01:36:45;;;;;;;2.80;2.60;;;11.40;99.90;;;;;;5031492;28;20918;-64
2024/02/17 01:39:11;;;;;;;3.37;2.87;;;11.40;99.90;;;;;;5031597;28;20449;-64
2024/02/17 01:41:37;;;;;;;2.73;2.53;;;11.40;99.90;;;;;;5031874;28;20175;-63
2024/02/17 01:44:03;;;;;;;3.67;3.30;;;11.30;99.90;;;;;;5031709;28;20190;-64
2024/02/17 01:46:29;;;;;;;3.50;3.17;;;11.30;99.90;;;;;;5031537;28;20197;-64
2024/02/17 01:48:55;;;;;;;5.07;3.03;;;11.20;99.90;;;;;;5031561;28;20420;-64
2024/02/17 01:51:22;;;;;;;4.83;3.07;;;11.30;99.90;;;;;;5031763;28;20405;-64
2024/02/17 01:53:49;;;;;;;3.70;2.97;;;11.40;99.90;;;;;;5031619;28;20202;-64
2024/02/17 01:56:17;;;;;;;3.63;2.70;;;11.40;99.90;;;;;;5031434;28;20933;-64
2024/02/17 01:58:44;;;;;;;3.70;3.40;;;11.40;99.90;;;;;;5031323;28;20452;-64
2024/02/17 02:01:10;;;;;;;5.90;4.60;;;11.30;99.90;;;;;;5031562;28;20402;-64
2024/02/17 02:03:36;;;;;;;4.23;3.77;;;11.30;99.90;;;;;;5031597;28;20859;-64
2024/02/17 02:06:02;;;;;;;4.37;3.70;;;11.20;99.90;;;;;;5031487;28;20435;-64
2024/02/17 02:08:28;;;;;;;3.80;3.50;;;11.20;99.90;;;;;;5012685;28;20175;-63
2024/02/17 02:11:00;;;;;;;4.90;4.50;;;11.30;99.90;;;;;;5031716;28;20489;-63
2024/02/17 02:13:25;;;;;;;5.03;4.20;;;11.20;99.90;;;;;;5031226;28;20218;-64
2024/02/17 02:15:51;;;;;;;5.13;4.00;;;11.10;99.90;;;;;;5031389;28;20417;-64
2024/02/17 02:18:17;;;;;;;5.13;3.97;;;11.20;99.90;;;;;;5031186;28;20460;-64
2024/02/17 02:20:43;;;;;;;4.70;4.20;;;11.30;99.90;;;;;;5031259;28;20170;-64
2024/02/17 02:23:08;;;;;;;4.00;3.67;;;11.30;99.90;;;;;;5031467;28;20573;-64
2024/02/17 02:25:34;;;;;;;3.73;3.43;;;11.40;99.90;;;;;;5031386;28;20849;-64
2024/02/17 02:28:00;;;;;;;3.50;3.20;;;11.30;99.90;;;;;;5031160;28;20595;-63
2024/02/17 02:30:25;;;;;;;5.10;4.17;;;11.30;99.90;;;;;;5031143;28;20182;-64
2024/02/17 02:32:57;;;;;;;3.77;3.47;;;11.20;99.90;;;;;;5031230;28;20568;-64
2024/02/17 02:35:22;;;;;;;6.10;4.87;;;11.20;99.90;;;;;;5031212;28;20571;-63
2024/02/17 02:37:48;;;;;;;4.30;3.70;;;11.20;99.90;;;;;;5031175;28;20413;-64
2024/02/17 02:40:14;;;;;;;5.63;4.37;;;11.20;99.90;;;;;;5031054;28;20167;-64
2024/02/17 02:42:39;;;;;;;5.27;4.63;;;11.20;99.90;;;;;;5031218;28;20191;-63
2024/02/17 02:45:08;;;;;;;6.33;4.07;;;11.20;99.90;;;;;;5031265;28;20169;-64
2024/02/17 02:47:34;;;;;;;5.37;4.87;;;11.20;99.90;;;;;;5030793;28;20175;-64
2024/02/17 02:49:59;;;;;;;5.70;4.23;;;11.40;99.90;;;;;;5031017;28;20454;-63
2024/02/17 02:52:25;;;;;;;4.30;3.90;;;11.40;99.90;;;;;;5030796;28;20178;-64
2024/02/17 02:54:51;;;;;;;6.93;3.73;;;11.40;99.90;;;;;;5031113;28;20586;-64
2024/02/17 02:57:17;;;;;;;4.43;3.80;;;11.30;99.90;;;;;;5030818;28;20484;-64
2024/02/17 02:59:43;;;;;;;5.00;4.20;;;11.10;99.90;;;;;;5030994;28;20704;-64
2024/02/17 03:02:09;;;;;;;4.83;4.30;;;11.10;99.90;;;;;;5030948;28;20189;-64
2024/02/17 03:04:35;;;;;;;5.87;3.80;;;11.10;99.90;;;;;;5030846;28;20429;-64
2024/02/17 03:07:00;;;;;;;4.90;3.47;;;11.10;99.90;;;;;;5030878;28;20212;-64
2024/02/17 03:09:26;;;;;;;4.27;3.53;;;11.20;99.90;;;;;;5030985;28;20493;-64
2024/02/17 03:11:52;;;;;;;6.30;4.13;;;11.20;99.90;;;;;;5030825;28;20171;-64
2024/02/17 03:14:18;;;;;;;6.27;4.67;;;11.10;99.90;;;;;;5030766;28;20210;-63
2024/02/17 03:16:44;;;;;;;6.83;3.53;;;11.10;99.90;;;;;;5030599;28;20176;-63
2024/02/17 03:19:09;;;;;;;4.20;3.80;;;10.90;99.90;;;;;;5030809;28;20199;-64
2024/02/17 03:21:35;;;;;;;4.97;4.17;;;10.90;99.90;;;;;;5034205;28;20409;-64
2024/02/17 03:24:01;;;;;;;4.07;3.10;;;11.10;99.90;;;;;;5034479;28;20186;-63
2024/02/17 03:26:26;;;;;;;3.10;2.80;;;11.10;99.90;;;;;;5034435;28;20195;-64
2024/02/17 03:28:52;;;;;;;3.97;3.50;;;11.20;99.90;;;;;;5033982;28;20182;-64
2024/02/17 03:31:18;;;;;;;3.83;2.37;;;11.20;99.90;;;;;;5034386;28;20380;-64
2024/02/17 03:33:44;;;;;;;3.77;3.33;;;11.20;99.90;;;;;;5034037;28;20432;-64
2024/02/17 03:36:09;;;;;;;4.07;3.43;;;11.20;99.90;;;;;;5034307;28;20171;-65
2024/02/17 03:38:35;;;;;;;4.30;2.33;;;11.30;99.90;;;;;;5034132;28;20244;-64
2024/02/17 03:41:00;;;;;;;2.50;2.20;;;11.20;99.90;;;;;;5032714;28;20293;-63
2024/02/17 03:43:26;;;;;;;1.90;1.70;;;11.20;99.90;;;;;;5033994;28;20653;-64
2024/02/17 03:45:52;;;;;;;2.43;2.20;;;11.20;99.90;;;;;;5034372;28;20178;-64
2024/02/17 03:48:17;;;;;;;2.57;2.37;;;11.10;99.90;;;;;;5033974;28;20632;-64
2024/02/17 03:50:43;;;;;;;2.00;1.90;;;11.10;99.90;;;;;;5034009;28;20228;-63
2024/02/17 03:53:09;;;;;;;3.60;2.57;;;11.20;99.90;;;;;;5033957;28;20206;-63
2024/02/17 03:55:34;;;;;;;2.50;2.00;;;11.20;99.90;;;;;;5034009;28;20173;-64
2024/02/17 03:58:00;;;;;;;2.50;2.30;;;11.10;99.90;;;;;;5033500;28;20171;-64
2024/02/17 04:00:26;;;;;;;2.60;2.10;;;11.20;99.90;;;;;;5033878;28;20175;-64
2024/02/17 04:02:51;;;;;;;2.90;2.23;;;11.20;99.90;;;;;;5033711;28;20190;-64
2024/02/17 04:05:17;;;;;;;2.57;2.37;;;11.20;99.90;;;;;;5033820;28;20319;-64
2024/02/17 04:07:43;;;;;;;3.07;2.30;;;11.20;99.90;;;;;;5033455;28;20691;-63
2024/02/17 04:10:09;;;;;;;2.47;2.07;;;11.20;99.90;;;;;;5033640;28;20186;-64
2024/02/17 04:12:40;;;;;;;3.10;2.40;;;11.20;99.90;;;;;;5033354;28;20803;-63
2024/02/17 04:15:06;;;;;;;2.10;1.97;;;11.30;99.90;;;;;;5033912;28;20421;-64
2024/02/17 04:17:32;;;;;;;2.80;2.23;;;11.30;99.90;;;;;;5033260;28;20944;-64
2024/02/17 04:19:57;;;;;;;2.53;1.50;;;11.20;99.90;;;;;;5033579;28;20484;-64
2024/02/17 04:22:25;;;;;;;3.10;2.03;;;11.20;99.90;;;;;;5033424;28;20242;-64
2024/02/17 04:24:51;;;;;;;2.23;2.03;;;11.20;99.90;;;;;;5033395;28;20205;-64
2024/02/17 04:27:16;;;;;;;4.70;2.70;;;11.30;99.90;;;;;;5033032;28;20708;-64
2024/02/17 04:29:42;;;;;;;2.10;1.87;;;11.30;99.90;;;;;;5033238;28;20891;-63
2024/02/17 04:32:08;;;;;;;2.07;1.80;;;11.30;99.90;;;;;;5032203;28;20715;-63
2024/02/17 04:34:34;;;;;;;2.00;1.90;;;11.30;99.90;;;;;;5033269;28;20198;-64
2024/02/17 04:37:01;;;;;;;2.13;1.60;;;11.20;99.90;;;;;;5032825;28;20418;-63
2024/02/17 04:39:27;;;;;;;2.87;2.00;;;11.10;99.90;;;;;;5033067;28;20457;-64
2024/02/17 04:41:54;;;;;;;2.57;1.77;;;11.00;99.90;;;;;;5032933;28;20417;-64
2024/02/17 04:44:20;;;;;;;2.53;1.80;;;11.00;99.90;;;;;;5032906;28;20195;-64
2024/02/17 04:46:46;;;;;;;1.90;1.80;;;11.00;99.90;;;;;;5032695;28;20417;-64
2024/02/17 04:49:11;;;;;;;16.60;3.53;;;11.00;99.90;;;;;;5032952;28;20418;-64
2024/02/17 04:51:37;;;;;;;2.87;2.10;;;10.90;99.90;;;;;;5032903;28;20175;-63
2024/02/17 04:54:03;;;;;;;6.70;2.10;;;10.90;99.90;;;;;;5032786;28;20206;-64
2024/02/17 04:56:29;;;;;;;12.40;3.13;;;10.90;99.90;;;;;;5032543;28;20613;-63
2024/02/17 04:58:55;;;;;;;9.67;2.00;;;11.00;99.90;;;;;;5032574;28;20491;-64
2024/02/17 05:01:22;;;;;;;6.73;2.90;;;11.00;99.90;;;;;;5032661;28;20174;-64
2024/02/17 05:03:48;;;;;;;26.53;7.87;;;11.10;99.90;;;;;;5032680;28;20582;-64
2024/02/17 05:06:17;;;;;;;13.17;4.13;;;11.00;99.90;;;;;;5032642;28;20402;-63
2024/02/17 05:08:43;;;;;;;3.30;2.93;;;11.00;99.90;;;;;;5032962;28;20417;-64
2024/02/17 05:11:10;;;;;;;51.53;6.30;;;11.00;99.90;;;;;;5032437;28;20420;-65
2024/02/17 05:13:35;;;;;;;68.67;15.30;;;11.10;99.90;;;;;;5032178;28;20456;-65
2024/02/17 05:16:01;;;;;;;42.47;7.47;;;11.10;99.90;;;;;;5032425;28;20417;-64
2024/02/17 05:18:27;;;;;;;19.47;4.90;;;11.10;99.90;;;;;;5032179;28;20209;-64
2024/02/17 05:20:52;;;;;;;2.63;2.43;;;11.00;99.90;;;;;;5041572;28;20579;-64
2024/02/17 05:23:18;;;;;;;16.33;3.67;;;11.00;99.90;;;;;;5052214;28;20244;-64
2024/02/17 05:25:45;;;;;;;32.67;6.63;;;11.00;99.90;;;;;;5052096;28;20258;-63
2024/02/17 05:28:10;;;;;;;68.97;11.50;;;11.00;99.90;;;;;;5051875;28;20180;-63
2024/02/17 05:30:36;;;;;;;22.23;5.70;;;11.10;99.90;;;;;;5052001;28;20405;-63
2024/02/17 05:33:01;;;;;;;22.90;4.50;;;11.20;99.90;;;;;;5052063;28;20186;-64
2024/02/17 05:35:27;;;;;;;16.27;4.17;;;11.20;99.90;;;;;;5051990;28;20170;-64
2024/02/17 05:37:53;;;;;;;29.83;5.60;;;11.10;99.90;;;;;;5052939;28;20555;-64
2024/02/17 05:40:18;;;;;;;27.80;4.00;;;11.20;99.90;;;;;;5051894;28;20170;-64
2024/02/17 05:42:44;;;;;;;17.87;3.80;;;11.20;99.90;;;;;;5051794;28;20194;-64
2024/02/17 05:45:18;;;;;;;22.30;4.77;;;11.20;99.90;;;;;;5051290;28;20189;-63
2024/02/17 05:47:43;;;;;;;25.30;5.03;;;11.20;99.90;;;;;;5051906;28;20174;-64
2024/02/17 05:50:10;;;;;;;36.80;6.80;;;11.10;99.90;;;;;;5051886;28;20400;-64
2024/02/17 05:52:36;;;;;;;36.70;6.03;;;11.10;99.90;;;;;;5051410;28;20199;-64
2024/02/17 05:55:01;;;;;;;11.73;4.90;;;11.10;99.90;;;;;;5051894;28;20416;-64
2024/02/17 05:57:33;;;;;;;10.13;3.03;;;11.10;99.90;;;;;;5051435;28;20177;-64
2024/02/17 05:59:58;;;;;;;2.77;2.37;;;11.00;99.90;;;;;;5051593;28;20206;-64
2024/02/17 06:02:24;;;;;;;7.60;3.17;;;11.10;99.90;;;;;;5051507;28;20416;-64
2024/02/17 06:04:50;;;;;;;3.57;2.63;;;11.20;99.90;;;;;;5051516;28;20174;-63
2024/02/17 06:07:16;;;;;;;5.20;2.70;;;11.30;99.90;;;;;;5051276;28;20231;-64
2024/02/17 06:09:42;;;;;;;33.23;4.80;;;11.30;99.90;;;;;;5051644;28;20177;-64
2024/02/17 06:12:07;;;;;;;3.57;1.93;;;11.20;99.90;;;;;;5051530;28;20786;-64
2024/02/17 06:14:33;;;;;;;1.67;1.33;;;11.10;99.90;;;;;;5051226;28;20702;-64
2024/02/17 06:17:04;;;;;;;2.20;2.03;;;11.00;99.90;;;;;;5051173;28;20236;-63
2024/02/17 06:22:14;;;;;;;1.50;1.40;;;11.00;99.90;;;;;;5035396;28;20459;-64
2024/02/17 06:24:40;;;;;;;2.10;2.00;;;11.00;99.90;;;;;;5051292;28;20523;-63
2024/02/17 06:27:06;;;;;;;1.90;1.80;;;11.00;99.90;;;;;;5050993;28;20174;-64
2024/02/17 06:29:31;;;;;;;6.00;2.00;;;11.10;99.90;;;;;;5051042;28;20179;-64
2024/02/17 06:31:57;;;;;;;22.77;3.57;;;11.20;99.90;;;;;;5051000;28;20177;-64
2024/02/17 06:34:22;;;;;;;39.70;4.40;;;11.20;99.90;;;;;;5051009;28;20269;-64
2024/02/17 06:36:48;;;;;;;99.77;8.50;;;11.10;99.90;;;;;;5050389;28;20648;-64
2024/02/17 06:39:14;;;;;;;34.80;4.80;;;11.00;99.90;;;;;;5050887;28;20205;-64
2024/02/17 06:41:40;;;;;;;30.60;5.87;;;10.90;99.90;;;;;;5051255;28;20201;-64
2024/02/17 06:44:05;;;;;;;3.70;1.30;;;10.90;99.90;;;;;;5051030;28;20932;-64
2024/02/17 06:46:31;;;;;;;3.33;2.37;;;11.00;99.90;;;;;;5051020;28;20177;-63
2024/02/17 06:48:56;;;;;;;2.87;1.90;;;11.10;99.90;;;;;;5050868;28;20265;-64
2024/02/17 06:51:23;;;;;;;2.20;1.67;;;11.20;99.90;;;;;;5051093;28;20193;-64
2024/02/17 06:53:49;;;;;;;8.47;2.60;;;11.20;99.90;;;;;;5050869;28;20198;-64
2024/02/17 06:56:15;;;;;;;6.00;2.80;;;11.20;99.90;;;;;;5053992;28;20985;-64
2024/02/17 06:58:44;;;;;;;3.60;3.23;;;11.30;99.90;;;;;;5054543;28;20531;-64
2024/02/17 07:01:09;;;;;;;7.80;3.00;;;11.40;99.90;;;;;;5054695;28;20412;-64
2024/02/17 07:03:35;;;;;;;10.60;2.83;;;11.30;99.90;;;;;;5054646;28;20787;-64
2024/02/17 07:06:00;;;;;;;8.33;3.20;;;11.30;99.90;;;;;;5054985;28;20663;-64
2024/02/17 07:08:27;;;;;;;4.67;2.03;;;11.30;99.90;;;;;;5054561;28;20270;-64
2024/02/17 07:10:52;;;;;;;22.63;3.53;;;11.30;99.90;;;;;;5054648;28;20648;-64
2024/02/17 07:13:18;;;;;;;26.50;3.60;;;11.20;99.90;;;;;;5054228;28;20459;-64
2024/02/17 07:15:45;;;;;;;8.60;2.30;;;11.20;99.90;;;;;;5054601;28;20178;-64
2024/02/17 07:18:11;;;;;;;1.70;1.60;;;11.10;99.90;;;;;;5054148;28;20996;-64
2024/02/17 07:20:37;;;;;;;1.97;1.87;;;11.10;99.90;;;;;;5054251;28;20507;-64
2024/02/17 07:23:03;;;;;;;2.57;2.37;;;11.10;99.90;;;;;;5051318;28;20527;-64
2024/02/17 07:25:29;;;;;;;2.03;1.83;;;11.30;99.90;;;;;;5054405;28;20225;-64
2024/02/17 07:27:58;;;;;;;6.97;2.43;;;11.30;99.90;;;;;;5054049;28;20196;-65
2024/02/17 07:30:25;;;;;;;10.80;1.97;;;11.30;99.90;;;;;;5054125;28;20923;-65
2024/02/17 07:32:52;;;;;;;27.00;4.30;;;11.40;99.90;;;;;;5054298;28;20432;-65
2024/02/17 07:35:18;;;;;;;9.00;2.87;;;11.40;99.90;;;;;;5053301;28;20431;-65
2024/02/17 07:37:44;;;;;;;9.57;2.50;;;11.30;99.90;;;;;;5053935;28;20416;-65
2024/02/17 07:40:10;;;;;;;22.90;3.97;;;11.30;99.90;;;;;;5054065;28;20877;-65
2024/02/17 07:42:36;;;;;;;8.90;2.83;;;11.30;99.90;;;;;;5054034;28;20198;-64
2024/02/17 07:45:05;;;;;;;7.47;2.20;;;11.30;99.90;;;;;;5053999;28;20401;-64
2024/02/17 07:47:33;;;;;;;8.10;2.23;;;11.40;99.90;;;;;;5053879;28;20423;-64
2024/02/17 07:50:02;;;;;;;4.07;1.97;;;11.40;99.90;;;;;;5054023;28;20806;-64
2024/02/17 07:52:28;;;;;;;4.23;2.30;;;11.50;99.90;;;;;;5053946;28;20425;-65
2024/02/17 07:54:53;;;;;;;2.93;1.80;;;11.40;99.90;;;;;;5053901;28;20777;-65
2024/02/17 07:57:19;;;;;;;1.77;1.67;;;11.40;99.90;;;;;;5053620;28;20170;-65
2024/02/17 07:59:44;;;;;;;1.63;1.53;;;11.40;99.90;;;;;;5053712;28;20198;-65
2024/02/17 08:02:10;;;;;;;1.87;1.77;;;11.40;99.90;;;;;;5053969;28;20166;-65
2024/02/17 08:04:36;;;;;;;2.67;2.20;;;11.40;99.90;;;;;;5053947;28;20202;-65
2024/02/17 08:07:02;;;;;;;1.30;1.00;;;11.30;99.90;;;;;;5053514;28;20197;-64
2024/02/17 08:09:28;;;;;;;2.53;2.10;;;11.40;99.90;;;;;;5053638;28;20915;-64
2024/02/17 08:11:54;;;;;;;1.53;1.43;;;11.40;99.90;;;;;;5053531;28;20174;-64
2024/02/17 08:14:20;;;;;;;3.80;3.17;;;11.50;99.90;;;;;;5053299;28;20559;-65
2024/02/17 08:16:47;;;;;;;8.40;5.40;;;11.50;99.90;;;;;;5053267;28;20780;-65
2024/02/17 08:19:13;;;;;;;3.40;2.83;;;11.60;99.90;;;;;;5053588;28;20850;-65
2024/02/17 08:21:38;;;;;;;6.70;3.50;;;11.70;99.90;;;;;;5053398;28;20428;-65
2024/02/17 08:24:05;;;;;;;4.47;2.43;;;11.70;99.90;;;;;;5053223;28;20209;-65
2024/02/17 08:26:32;;;;;;;3.70;3.00;;;11.70;99.90;;;;;;5053192;28;20581;-65
2024/02/17 08:28:58;;;;;;;2.87;2.47;;;11.70;99.90;;;;;;5049249;28;20922;-64
2024/02/17 08:31:23;;;;;;;2.33;2.00;;;11.70;99.90;;;;;;5052891;28;20419;-65
2024/02/17 08:33:49;;;;;;;3.20;2.77;;;11.80;99.90;;;;;;5053007;28;20431;-65
2024/02/17 08:36:16;;;;;;;3.23;2.90;;;11.80;99.90;;;;;;5053161;28;20188;-65
2024/02/17 08:38:41;;;;;;;4.00;2.33;;;11.80;99.90;;;;;;5052860;28;20198;-65
2024/02/17 08:41:07;;;;;;;2.20;1.40;;;11.80;99.90;;;;;;5053048;28;20462;-64
2024/02/17 08:43:32;;;;;;;1.30;1.17;;;11.80;99.90;;;;;;5052882;28;20233;-65
2024/02/17 08:45:58;;;;;;;0.80;0.80;;;11.80;99.90;;;;;;5052906;28;20178;-64
2024/02/17 08:48:24;;;;;;;1.20;1.10;;;11.80;99.90;;;;;;5052847;28;20186;-65
2024/02/17 08:50:51;;;;;;;1.30;1.10;;;11.80;99.90;;;;;;5052911;28;20500;-65
2024/02/17 08:53:18;;;;;;;1.40;1.30;;;11.80;99.90;;;;;;5052599;28;20197;-65
2024/02/17 08:55:43;;;;;;;2.27;1.50;;;11.90;99.90;;;;;;5052801;28;20417;-65
2024/02/17 08:58:09;;;;;;;3.90;1.77;;;11.90;99.90;;;;;;5051898;28;20423;-65
2024/02/17 09:00:36;;;;;;;0.80;0.80;;;11.90;99.90;;;;;;5052614;28;20688;-65
2024/02/17 09:03:02;;;;;;;0.87;0.87;;;11.90;99.90;;;;;;5052508;28;20396;-65
2024/02/17 09:05:28;;;;;;;1.63;1.53;;;11.90;99.90;;;;;;5052449;28;21200;-65
2024/02/17 09:07:54;;;;;;;1.60;0.80;;;12.00;99.90;;;;;;5052327;28;20447;-65
2024/02/17 09:10:19;;;;;;;1.10;1.10;;;12.10;99.90;;;;;;5052204;28;20722;-65
2024/02/17 09:12:45;;;;;;;1.07;1.07;;;12.20;99.90;;;;;;5051991;28;20229;-65
2024/02/17 09:15:11;;;;;;;1.43;1.33;;;12.20;99.90;;;;;;5050668;28;20255;-65
2024/02/17 09:17:36;;;;;;;2.10;1.17;;;12.30;99.90;;;;;;5051672;28;20175;-64
2024/02/17 09:20:04;;;;;;;2.27;1.97;;;12.40;99.90;;;;;;5052272;28;20256;-65
2024/02/17 09:22:29;;;;;;;3.73;3.37;;;12.40;99.90;;;;;;5052244;28;20248;-65
2024/02/17 09:24:56;;;;;;;1.77;1.60;;;12.40;99.90;;;;;;5052183;28;20416;-64
2024/02/17 09:27:22;;;;;;;2.10;2.00;;;12.30;99.90;;;;;;5051857;28;20178;-65
2024/02/17 09:29:47;;;;;;;1.50;1.40;;;12.30;99.90;;;;;;5052246;28;20768;-65
2024/02/17 09:32:14;;;;;;;1.80;1.70;;;12.10;99.90;;;;;;5052250;28;20421;-65
2024/02/17 09:34:40;;;;;;;2.37;2.10;;;12.10;99.90;;;;;;5051962;28;20409;-64
2024/02/17 09:37:10;;;;;;;2.93;1.97;;;12.10;99.90;;;;;;5051787;28;20415;-64
2024/02/17 09:39:39;;;;;;;4.40;1.63;;;12.10;99.90;;;;;;5051819;28;20984;-65
2024/02/17 09:42:06;;;;;;;1.30;1.20;;;12.20;99.90;;;;;;5051918;28;20408;-65
2024/02/17 09:44:32;;;;;;;2.63;1.97;;;12.20;99.90;;;;;;5051796;28;20427;-65
2024/02/17 09:46:58;;;;;;;1.03;1.03;;;12.30;99.90;;;;;;5051701;28;20947;-64
2024/02/17 09:49:25;;;;;;;1.37;1.27;;;12.40;99.90;;;;;;5051914;28;20416;-65
2024/02/17 09:51:52;;;;;;;1.47;1.37;;;12.50;99.90;;;;;;5051708;28;20439;-62
2024/02/17 09:54:21;;;;;;;1.67;1.57;;;12.50;99.90;;;;;;5051542;28;20865;-62
2024/02/17 09:56:51;;;;;;;1.50;1.40;;;12.50;99.90;;;;;;5051544;28;20450;-62
2024/02/17 09:59:17;;;;;;;2.10;1.90;;;12.50;99.90;;;;;;5051746;28;20543;-62
2024/02/17 10:01:45;;;;;;;2.10;1.90;;;12.50;99.90;;;;;;5051626;28;20467;-61
2024/02/17 10:04:11;;;;;;;2.03;1.37;;;12.60;99.90;;;;;;5051574;28;20846;-62
2024/02/17 10:06:36;;;;;;;1.27;1.03;;;12.70;99.90;;;;;;5051528;28;20422;-62
2024/02/17 10:09:03;;;;;;;6.13;4.70;;;12.70;99.90;;;;;;5051344;28;20180;-62
2024/02/17 10:11:30;;;;;;;2.00;1.47;;;12.80;99.90;;;;;;5051625;28;20600;-62
2024/02/17 10:14:01;;;;;;;3.40;1.47;;;12.80;99.90;;;;;;5051245;28;20448;-62
2024/02/17 10:16:31;;;;;;;1.07;0.90;;;12.80;99.90;;;;;;5051510;28;20471;-61
2024/02/17 10:18:59;;;;;;;0.67;0.60;;;12.90;99.90;;;;;;5051117;28;20985;-62
2024/02/17 10:21:25;;;;;;;0.70;0.70;;;13.00;99.90;;;;;;5051230;28;20412;-62
2024/02/17 10:23:53;;;;;;;0.80;0.67;;;13.10;99.90;;;;;;5051420;28;20473;-62
2024/02/17 10:26:19;;;;;;;0.80;0.80;;;13.30;99.90;;;;;;5051307;28;20415;-63
2024/02/17 10:28:55;;;;;;;0.57;0.57;;;13.40;99.90;;;;;;5051285;28;20412;-62
2024/02/17 10:31:21;;;;;;;0.60;0.60;;;13.70;99.90;;;;;;5054780;28;20261;-61
2024/02/17 10:33:48;;;;;;;0.80;0.80;;;13.80;99.90;;;;;;5055249;28;20988;-62
2024/02/17 10:36:16;;;;;;;0.67;0.67;;;13.90;99.90;;;;;;5055285;28;20431;-62
2024/02/17 10:38:42;;;;;;;1.10;0.70;;;13.90;99.90;;;;;;5055025;28;20509;-61
2024/02/17 10:41:09;;;;;;;0.57;0.53;;;13.90;99.90;;;;;;5055354;28;20413;-62
2024/02/17 10:43:39;;;;;;;0.50;0.50;;;13.90;99.90;;;;;;5055303;28;20437;-62
2024/02/17 10:46:21;;;;;;;0.60;0.60;;;13.90;99.90;;;;;;5055316;28;20450;-62
2024/02/17 10:49:17;;;;;;;0.67;0.50;;;14.00;99.90;;;;;;5055133;28;20407;-62
2024/02/17 10:52:10;;;;;;;0.60;0.60;;;14.00;99.90;;;;;;5055207;28;20412;-62
2024/02/17 10:54:52;;;;;;;0.60;0.60;;;13.90;99.90;;;;;;5050979;28;20475;-62
2024/02/17 10:57:21;;;;;;;0.70;0.70;;;13.80;99.90;;;;;;5054948;28;20465;-62
2024/02/17 10:59:54;;;;;;;0.90;0.90;;;13.80;99.90;;;;;;5054853;28;20497;-62
2024/02/17 11:02:25;;;;;;;6.37;3.50;;;13.80;99.90;;;;;;5055022;28;20413;-62
2024/02/17 11:04:51;;;;;;;2.63;2.07;;;13.70;99.90;;;;;;5054983;28;20411;-62
2024/02/17 11:07:18;;;;;;;2.20;2.00;;;13.70;99.90;;;;;;5054033;28;20441;-62
2024/02/17 11:09:47;;;;;;;2.03;1.40;;;13.60;99.90;;;;;;5050310;28;20463;-62
2024/02/17 11:12:33;;;;;;;0.73;0.73;;;13.70;99.90;;;;;;5043398;28;20445;-61
2024/02/17 11:15:11;;;;;;;0.60;0.60;;;13.60;99.90;;;;;;5044242;28;20515;-62
2024/02/17 11:17:41;;;;;;;0.40;0.40;;;13.50;99.90;;;;;;5043443;28;20403;-62
2024/02/17 11:20:11;;;;;;;1.80;1.70;;;13.40;99.90;;;;;;5043185;28;20466;-62
2024/02/17 11:22:39;;;;;;;1.20;1.10;;;13.40;99.90;;;;;;5044008;28;20434;-62
2024/02/17 11:25:07;;;;;;;1.27;0.60;;;13.30;99.90;;;;;;5043421;28;20492;-62
2024/02/17 11:27:34;;;;;;;0.50;0.50;;;13.20;99.90;;;;;;5036716;28;20414;-62
2024/02/17 11:30:00;;;;;;;1.50;0.80;;;13.10;99.90;;;;;;5034482;28;20471;-62
2024/02/17 11:32:30;;;;;;;0.40;0.40;;;13.00;99.90;;;;;;5034281;28;20842;-62
2024/02/17 11:34:56;;;;;;;0.73;0.50;;;13.00;99.90;;;;;;5034819;28;20707;-62
2024/02/17 11:37:23;;;;;;;0.60;0.60;;;13.00;99.90;;;;;;5034005;28;20543;-62
2024/02/17 11:39:52;;;;;;;0.50;0.50;;;13.00;99.90;;;;;;5034117;28;20452;-62
2024/02/17 11:42:18;;;;;;;0.90;0.90;;;13.00;99.90;;;;;;5033738;28;20413;-62
2024/02/17 11:44:47;;;;;;;0.47;0.47;;;12.90;99.90;;;;;;5033997;28;20468;-62
2024/02/17 11:47:14;;;;;;;1.33;0.73;;;12.80;99.90;;;;;;5034020;28;20417;-62
2024/02/17 11:49:39;;;;;;;0.60;0.60;;;12.60;99.90;;;;;;5040982;28;20408;-62
2024/02/17 11:52:06;;;;;;;0.83;0.77;;;12.50;99.90;;;;;;5053763;28;20413;-62
2024/02/17 11:54:34;;;;;;;0.53;0.53;;;12.50;99.90;;;;;;5047443;28;20243;-62
2024/02/17 11:57:01;;;;;;;0.60;0.60;;;12.40;99.90;;;;;;5033618;28;20424;-62
2024/02/17 11:59:28;;;;;;;0.93;0.93;;;12.40;99.90;;;;;;5033269;28;20475;-62
2024/02/17 12:01:54;;;;;;;0.53;0.53;;;12.50;99.90;;;;;;5034025;28;20418;-62
2024/02/17 12:04:23;;;;;;;0.93;0.53;;;12.60;99.90;;;;;;5033735;28;20927;-62
2024/02/17 12:06:49;;;;;;;0.50;0.50;;;12.50;99.90;;;;;;5033453;28;20416;-63
2024/02/17 12:09:16;;;;;;;0.60;0.60;;;12.30;99.90;;;;;;5033509;28;20421;-62
2024/02/17 12:11:42;;;;;;;0.60;0.60;;;12.30;99.90;;;;;;5033526;28;20413;-62
2024/02/17 12:14:09;;;;;;;0.67;0.67;;;12.20;99.90;;;;;;5033505;28;20464;-63
2024/02/17 12:16:35;;;;;;;0.60;0.60;;;12.10;99.90;;;;;;5033549;28;20429;-63
2024/02/17 12:19:08;;;;;;;0.50;0.50;;;11.90;99.90;;;;;;5033213;28;20449;-63
2024/02/17 12:21:35;;;;;;;0.47;0.47;;;11.80;99.90;;;;;;5033529;28;20413;-63
2024/02/17 12:24:02;;;;;;;0.50;0.50;;;11.70;99.90;;;;;;5033285;28;20421;-63
2024/02/17 12:26:31;;;;;;;0.40;0.40;;;11.60;99.90;;;;;;5033223;28;20790;-63
2024/02/17 12:29:02;;;;;;;0.40;0.40;;;11.50;99.90;;;;;;5033377;28;20414;-62
2024/02/17 12:31:29;;;;;;;0.50;0.50;;;11.60;99.90;;;;;;5033475;28;20409;-62
2024/02/17 12:33:54;;;;;;;0.87;0.63;;;11.60;99.90;;;;;;5033372;28;20539;-63
2024/02/17 12:36:21;;;;;;;0.40;0.40;;;11.80;99.90;;;;;;5033135;28;20424;-62
2024/02/17 12:38:49;;;;;;;0.40;0.40;;;11.90;99.90;;;;;;5032892;28;20215;-63
2024/02/17 12:41:16;;;;;;;0.50;0.50;;;11.90;99.90;;;;;;5047651;28;20423;-63
2024/02/17 12:43:47;;;;;;;0.50;0.50;;;11.80;99.90;;;;;;5053145;28;20424;-63
2024/02/17 12:46:24;;;;;;;0.40;0.40;;;11.80;99.90;;;;;;5053039;28;20496;-63